Time;durP1;ratioP1;P1;durP2;ratioP2;P2;SDS_P1;SDS_P2;PMS_P1;PMS_P2;Temp;Humidity;BMP_temperature;BMP_pressure;BME280_temperature;BME280_humidity;BME280_pressure;Samples;Min_cycle;Max_cycle;Signal;HPM_P1;HPM_P2
2021/09/11 00:00:33;;;;;;;20.10;11.57;;;;;;;27.54;46.80;100339.09;4413821;32;20099;-67
2021/09/11 00:03:00;;;;;;;17.85;10.60;;;;;;;27.42;46.95;100343.62;4423297;32;20073;-67
2021/09/11 00:05:26;;;;;;;18.40;11.23;;;;;;;27.70;46.00;100332.09;4418860;32;20089;-67
2021/09/11 00:07:52;;;;;;;16.45;10.90;;;;;;;27.77;45.87;100345.84;4419687;32;20119;-67
2021/09/11 00:10:18;;;;;;;20.98;12.25;;;;;;;27.58;46.21;100341.66;4417366;32;20046;-67
2021/09/11 00:12:44;;;;;;;18.10;12.00;;;;;;;27.73;46.20;100339.63;4417551;32;20099;-67
2021/09/11 00:15:13;;;;;;;17.85;11.32;;;;;;;27.84;45.68;100345.13;4417856;32;20065;-67
2021/09/11 00:17:40;;;;;;;19.85;12.48;;;;;;;27.95;45.44;100341.16;4417972;32;20466;-67
2021/09/11 00:20:08;;;;;;;18.90;11.75;;;;;;;27.72;45.98;100338.09;4416379;32;20630;-67
2021/09/11 00:22:34;;;;;;;21.58;12.48;;;;;;;27.74;46.03;100329.63;4415385;32;20031;-67
2021/09/11 00:25:00;;;;;;;20.45;12.65;;;;;;;27.63;46.16;100337.81;4419964;32;20045;-67
2021/09/11 00:27:25;;;;;;;21.95;12.35;;;;;;;27.40;46.58;100328.22;4416508;32;20475;-67
2021/09/11 00:29:51;;;;;;;22.10;12.68;;;;;;;27.32;46.83;100336.03;4412966;32;20115;-67
2021/09/11 00:32:17;;;;;;;21.00;13.13;;;;;;;27.26;46.84;100339.06;4415250;32;20206;-67
2021/09/11 00:34:43;;;;;;;20.73;12.75;;;;;;;27.16;46.97;100338.00;4417461;32;20137;-68
2021/09/11 00:37:09;;;;;;;19.83;12.48;;;;;;;27.40;46.59;100334.78;4419020;32;20151;-68
2021/09/11 00:39:34;;;;;;;17.35;11.52;;;;;;;27.54;46.30;100329.66;4417941;32;20068;-68
2021/09/11 00:42:00;;;;;;;17.50;11.60;;;;;;;27.22;46.95;100321.28;4416791;32;20456;-68
2021/09/11 00:44:27;;;;;;;19.75;12.23;;;;;;;27.30;46.81;100316.38;4419290;32;20129;-68
2021/09/11 00:46:53;;;;;;;18.23;12.32;;;;;;;27.48;46.34;100324.03;4419732;32;20068;-68
2021/09/11 00:49:18;;;;;;;19.83;11.50;;;;;;;27.54;46.32;100332.53;4415411;32;20107;-68
2021/09/11 00:51:45;;;;;;;21.15;12.68;;;;;;;27.41;46.24;100321.06;4415899;32;20116;-68
2021/09/11 00:54:11;;;;;;;18.30;11.95;;;;;;;27.43;46.56;100322.09;4422203;32;20101;-67
2021/09/11 00:56:37;;;;;;;21.00;13.45;;;;;;;27.21;46.90;100316.84;4416211;32;20065;-67
2021/09/11 00:59:03;;;;;;;20.37;12.85;;;;;;;27.17;47.15;100314.31;4417933;32;20087;-67
2021/09/11 01:01:30;;;;;;;19.75;12.82;;;;;;;27.05;47.28;100315.94;4420613;32;20435;-69
2021/09/11 01:03:56;;;;;;;22.17;13.65;;;;;;;27.04;47.43;100314.41;4416587;32;20137;-69
2021/09/11 01:06:23;;;;;;;23.30;13.88;;;;;;;27.19;47.04;100313.75;4418538;32;20513;-69
2021/09/11 01:08:49;;;;;;;25.10;13.98;;;;;;;27.09;47.53;100330.03;4420772;32;20061;-69
2021/09/11 01:11:15;;;;;;;24.52;15.32;;;;;;;26.83;47.85;100322.25;4416162;32;20184;-69
2021/09/11 01:13:41;;;;;;;25.83;15.80;;;;;;;26.79;48.40;100327.59;4416555;32;20077;-69
2021/09/11 01:16:08;;;;;;;26.40;16.35;;;;;;;26.98;47.82;100322.44;4418307;32;20050;-69
2021/09/11 01:18:34;;;;;;;31.12;17.33;;;;;;;26.83;48.14;100309.94;4418842;32;20925;-69
2021/09/11 01:21:00;;;;;;;30.25;17.98;;;;;;;26.86;48.00;100308.81;4420629;32;20046;-67
2021/09/11 01:23:26;;;;;;;34.65;19.90;;;;;;;26.94;48.07;100319.09;4415228;32;20478;-68
2021/09/11 01:25:53;;;;;;;33.15;22.02;;;;;;;26.96;48.12;100309.88;4416070;32;20126;-67
2021/09/11 01:28:19;;;;;;;37.25;24.33;;;;;;;26.93;48.16;100314.66;4418424;32;20081;-67
2021/09/11 01:30:45;;;;;;;39.42;25.95;;;;;;;26.86;48.41;100321.16;4415361;32;20103;-67
2021/09/11 01:33:12;;;;;;;40.25;25.30;;;;;;;26.81;48.51;100319.16;4415320;32;20053;-67
2021/09/11 01:35:38;;;;;;;41.70;25.83;;;;;;;27.05;48.16;100315.16;4417922;32;20090;-68
2021/09/11 01:38:05;;;;;;;37.50;24.55;;;;;;;27.18;47.81;100320.84;4420958;32;20053;-68
2021/09/11 01:40:31;;;;;;;32.95;21.77;;;;;;;27.38;47.51;100328.00;4420297;32;20469;-68
2021/09/11 01:42:57;;;;;;;29.37;20.50;;;;;;;27.63;47.10;100329.16;4420424;32;20081;-68
2021/09/11 01:45:23;;;;;;;28.95;20.10;;;;;;;27.65;47.00;100324.38;4418294;32;20391;-68
2021/09/11 01:47:50;;;;;;;26.50;18.20;;;;;;;27.75;46.46;100327.50;4420505;32;20095;-68
2021/09/11 01:50:19;;;;;;;27.60;18.62;;;;;;;27.92;46.51;100334.38;4423319;32;20119;-68
2021/09/11 01:52:50;;;;;;;29.02;18.35;;;;;;;27.89;46.45;100331.87;4418822;32;20456;-68
2021/09/11 01:55:16;;;;;;;28.05;18.23;;;;;;;27.75;46.69;100339.06;4417531;32;20054;-68
2021/09/11 01:57:44;;;;;;;23.17;16.23;;;;;;;27.78;46.72;100335.03;4419214;32;20049;-68
2021/09/11 02:00:15;;;;;;;23.92;15.75;;;;;;;28.01;46.33;100336.00;4421569;32;20094;-69
2021/09/11 02:02:41;;;;;;;22.62;15.75;;;;;;;28.03;46.19;100328.28;4419808;32;20197;-67
2021/09/11 02:05:09;;;;;;;22.95;14.68;;;;;;;27.90;46.64;100325.53;4416887;32;20081;-66
2021/09/11 02:07:35;;;;;;;21.17;14.35;;;;;;;28.12;46.09;100336.44;4423038;32;20030;-67
2021/09/11 02:10:02;;;;;;;19.62;13.73;;;;;;;27.85;46.59;100335.09;4421618;32;20104;-66
2021/09/11 02:12:28;;;;;;;24.65;14.55;;;;;;;28.05;46.21;100337.19;4418992;32;20072;-66
2021/09/11 02:14:54;;;;;;;22.00;14.85;;;;;;;27.71;46.72;100330.78;4417462;32;20042;-66
2021/09/11 02:17:20;;;;;;;21.62;14.57;;;;;;;27.79;46.83;100334.47;4424654;32;20415;-67
2021/09/11 02:19:47;;;;;;;20.08;14.55;;;;;;;27.73;46.97;100333.84;4421574;32;20416;-67
2021/09/11 02:22:13;;;;;;;21.37;14.15;;;;;;;27.85;46.73;100340.88;4421518;32;20404;-66
2021/09/11 02:24:40;;;;;;;22.30;14.85;;;;;;;27.94;46.64;100340.38;4422681;32;20030;-67
2021/09/11 02:27:06;;;;;;;21.98;14.45;;;;;;;28.05;46.24;100337.19;4419672;32;20046;-67
2021/09/11 02:29:33;;;;;;;27.27;14.27;;;;;;;27.96;46.30;100334.81;4421267;32;20461;-66
2021/09/11 02:32:01;;;;;;;20.88;14.50;;;;;;;27.95;46.45;100339.03;4419898;32;20088;-66
2021/09/11 02:34:27;;;;;;;20.08;14.15;;;;;;;28.14;46.05;100344.56;4419196;32;20439;-66
2021/09/11 02:36:53;;;;;;;20.08;15.00;;;;;;;28.17;45.47;100337.62;4420768;32;20049;-67
2021/09/11 02:39:19;;;;;;;23.52;15.75;;;;;;;28.16;45.30;100331.06;4418634;32;20064;-67
2021/09/11 02:41:44;;;;;;;21.27;14.45;;;;;;;28.09;45.62;100336.78;4417431;32;20049;-67
2021/09/11 02:44:10;;;;;;;24.05;16.10;;;;;;;28.14;45.57;100342.44;4419401;32;20497;-67
2021/09/11 02:46:36;;;;;;;21.70;14.52;;;;;;;28.06;45.91;100335.03;4422167;32;20352;-67
2021/09/11 02:49:03;;;;;;;22.73;14.48;;;;;;;28.16;45.79;100341.87;4420822;32;20106;-67
2021/09/11 02:51:28;;;;;;;24.27;15.60;;;;;;;28.14;45.65;100338.75;4419900;32;20082;-67
2021/09/11 02:53:54;;;;;;;22.05;14.40;;;;;;;28.16;45.20;100341.87;4417821;32;20064;-67
2021/09/11 02:56:20;;;;;;;19.20;13.25;;;;;;;28.27;44.94;100333.62;4418979;32;20065;-67
2021/09/11 02:58:46;;;;;;;19.70;12.45;;;;;;;28.11;45.25;100329.13;4418931;32;20542;-67
2021/09/11 03:01:11;;;;;;;18.67;12.60;;;;;;;28.44;44.25;100338.91;4419798;32;20064;-67
2021/09/11 03:03:38;;;;;;;16.00;11.50;;;;;;;28.37;44.32;100336.75;4419922;32;20089;-67
2021/09/11 03:06:03;;;;;;;13.77;9.95;;;;;;;28.58;43.66;100340.34;4418862;32;20046;-67
2021/09/11 03:08:29;;;;;;;15.45;9.52;;;;;;;28.21;44.12;100330.12;4420506;32;20185;-67
2021/09/11 03:10:55;;;;;;;20.10;9.95;;;;;;;28.04;44.11;100335.63;4417641;32;20116;-67
2021/09/11 03:13:21;;;;;;;19.62;12.15;;;;;;;28.21;43.96;100344.59;4415802;32;20435;-67
2021/09/11 03:15:47;;;;;;;17.52;12.48;;;;;;;28.23;44.08;100353.50;4420059;32;20454;-67
2021/09/11 03:18:13;;;;;;;16.85;12.63;;;;;;;28.32;44.33;100352.94;4419684;32;20042;-67
2021/09/11 03:20:39;;;;;;;17.17;11.98;;;;;;;28.11;44.80;100351.47;4422536;32;20140;-67
2021/09/11 03:23:05;;;;;;;16.90;11.48;;;;;;;27.97;44.73;100352.91;4415304;32;20057;-67
2021/09/11 03:25:34;;;;;;;12.63;8.60;;;;;;;28.04;44.69;100347.19;4422993;32;20584;-67
2021/09/11 03:27:59;;;;;;;12.60;8.48;;;;;;;28.07;44.11;100348.94;4419834;32;20115;-67
2021/09/11 03:30:25;;;;;;;12.93;7.28;;;;;;;27.49;44.50;100357.41;4417540;32;20481;-67
2021/09/11 03:32:51;;;;;;;11.60;6.75;;;;;;;27.74;43.94;100357.75;4418473;32;20068;-68
2021/09/11 03:35:17;;;;;;;10.80;7.32;;;;;;;27.72;44.13;100345.97;4421452;32;20507;-67
2021/09/11 03:37:42;;;;;;;10.50;6.65;;;;;;;27.76;43.73;100341.38;4420463;32;20441;-67
2021/09/11 03:40:09;;;;;;;11.27;7.10;;;;;;;27.55;44.17;100339.91;4415049;32;20107;-67
2021/09/11 03:42:35;;;;;;;9.18;6.97;;;;;;;27.76;43.90;100343.53;4420146;32;20111;-67
2021/09/11 03:45:02;;;;;;;9.90;6.25;;;;;;;27.51;44.32;100345.25;4419205;32;20088;-67
2021/09/11 03:47:28;;;;;;;12.10;7.22;;;;;;;27.58;44.42;100359.75;4419588;32;20080;-67
2021/09/11 03:49:54;;;;;;;12.68;7.50;;;;;;;27.70;44.16;100360.25;4419311;32;20072;-67
2021/09/11 03:52:19;;;;;;;13.40;8.32;;;;;;;27.60;44.41;100357.06;4419769;32;20618;-67
2021/09/11 03:54:45;;;;;;;13.23;9.52;;;;;;;27.71;44.43;100356.78;4419849;32;20046;-67
2021/09/11 03:57:11;;;;;;;17.00;11.40;;;;;;;27.81;44.49;100354.94;4421148;32;20045;-67
2021/09/11 03:59:36;;;;;;;14.18;11.93;;;;;;;27.84;44.58;100353.78;4416848;32;20133;-67
2021/09/11 04:02:02;;;;;;;21.95;13.23;;;;;;;27.98;44.47;100349.47;4414437;32;20071;-67
2021/09/11 04:04:28;;;;;;;17.55;13.18;;;;;;;28.06;44.28;100361.88;4421054;32;20137;-67
2021/09/11 04:06:53;;;;;;;17.37;13.75;;;;;;;28.14;44.36;100350.34;4419477;32;20461;-67
2021/09/11 04:09:19;;;;;;;24.37;14.40;;;;;;;28.07;44.29;100360.50;4421954;32;20041;-67
2021/09/11 04:11:45;;;;;;;21.05;13.98;;;;;;;28.18;44.33;100359.41;4417965;32;20042;-67
2021/09/11 04:14:11;;;;;;;17.77;12.80;;;;;;;28.31;43.96;100359.28;4416324;32;20491;-68
2021/09/11 04:16:37;;;;;;;12.18;9.63;;;;;;;28.16;43.88;100359.97;4418818;32;20119;-67
2021/09/11 04:19:04;;;;;;;11.15;8.13;;;;;;;27.92;43.98;100368.34;4421471;32;20370;-67
2021/09/11 04:21:30;;;;;;;11.75;7.57;;;;;;;28.20;42.93;100368.31;4418911;32;20088;-67
2021/09/11 04:23:55;;;;;;;8.45;6.47;;;;;;;28.21;43.17;100361.94;4420164;32;20582;-67
2021/09/11 04:26:21;;;;;;;8.77;6.40;;;;;;;28.08;42.96;100367.88;4421894;32;20114;-67
2021/09/11 04:28:47;;;;;;;9.45;6.53;;;;;;;28.01;43.32;100374.34;4419856;32;20153;-67
2021/09/11 04:31:12;;;;;;;10.25;7.57;;;;;;;27.95;43.32;100361.41;4418878;32;20091;-67
2021/09/11 04:33:38;;;;;;;13.15;8.48;;;;;;;27.75;43.72;100368.75;4417128;32;20179;-67
2021/09/11 04:36:04;;;;;;;13.25;9.70;;;;;;;27.70;43.87;100372.56;4418432;32;20045;-67
2021/09/11 04:38:29;;;;;;;19.45;10.38;;;;;;;27.32;44.63;100365.72;4418433;32;20049;-67
2021/09/11 04:40:55;;;;;;;13.40;10.50;;;;;;;27.25;44.86;100380.88;4417252;32;20540;-67
2021/09/11 04:43:21;;;;;;;17.10;11.68;;;;;;;27.36;44.49;100363.22;4418640;32;20081;-67
2021/09/11 04:45:48;;;;;;;12.32;9.95;;;;;;;27.68;44.02;100377.38;4417504;32;20093;-67
2021/09/11 04:48:14;;;;;;;13.52;8.32;;;;;;;27.58;43.98;100371.31;4417841;32;20094;-67
2021/09/11 04:50:39;;;;;;;10.95;7.75;;;;;;;27.34;44.22;100365.94;4420597;32;20422;-67
2021/09/11 04:53:05;;;;;;;8.30;5.70;;;;;;;27.42;44.08;100369.66;4419141;32;20099;-67
2021/09/11 04:55:31;;;;;;;7.20;5.00;;;;;;;27.15;44.43;100365.31;4419180;32;20086;-67
2021/09/11 04:57:56;;;;;;;7.10;4.85;;;;;;;27.01;44.47;100367.50;4417962;32;20119;-67
2021/09/11 05:00:24;;;;;;;5.07;3.83;;;;;;;27.25;44.17;100369.31;4419784;32;20069;-67
2021/09/11 05:02:50;;;;;;;9.45;3.97;;;;;;;27.21;44.07;100368.84;4422391;32;20057;-67
2021/09/11 05:05:16;;;;;;;6.43;4.05;;;;;;;27.10;44.29;100381.47;4417998;32;20124;-67
2021/09/11 05:07:41;;;;;;;5.95;4.18;;;;;;;26.89;44.71;100389.31;4417340;32;20331;-66
2021/09/11 05:10:07;;;;;;;6.22;3.92;;;;;;;27.00;44.53;100388.28;4416095;32;20224;-66
2021/09/11 05:12:33;;;;;;;5.50;3.40;;;;;;;26.87;44.86;100391.19;4420993;32;20104;-66
2021/09/11 05:14:59;;;;;;;5.78;3.55;;;;;;;26.89;44.64;100391.44;4422648;32;20046;-66
2021/09/11 05:17:25;;;;;;;5.25;3.30;;;;;;;26.85;44.66;100397.53;4422488;32;20079;-66
2021/09/11 05:19:50;;;;;;;9.90;4.03;;;;;;;26.88;44.48;100398.56;4419366;32;20034;-66
2021/09/11 05:22:16;;;;;;;8.93;3.50;;;;;;;26.91;44.53;100394.53;4420674;32;20100;-66
2021/09/11 05:24:42;;;;;;;5.70;2.95;;;;;;;26.73;44.60;100404.13;4422706;32;20118;-66
2021/09/11 05:27:08;;;;;;;5.22;2.95;;;;;;;26.68;44.73;100417.38;4421569;32;20077;-66
2021/09/11 05:29:34;;;;;;;5.18;3.15;;;;;;;27.01;44.13;100412.94;4423200;32;20060;-66
2021/09/11 05:31:59;;;;;;;6.93;3.37;;;;;;;26.95;44.05;100420.94;4418403;32;20110;-66
2021/09/11 05:34:26;;;;;;;7.07;3.83;;;;;;;26.95;43.83;100423.84;4424077;32;20088;-66
2021/09/11 05:36:52;;;;;;;5.15;3.12;;;;;;;26.90;43.91;100418.97;4425184;32;20054;-66
2021/09/11 05:39:18;;;;;;;8.75;2.95;;;;;;;26.92;43.92;100422.06;4422436;32;20107;-66
2021/09/11 05:41:43;;;;;;;5.65;3.10;;;;;;;26.98;43.78;100425.62;4419474;32;20412;-68
2021/09/11 05:44:10;;;;;;;6.28;2.67;;;;;;;27.10;43.56;100427.69;4422282;32;21452;-68
2021/09/11 05:46:35;;;;;;;3.78;2.70;;;;;;;26.86;43.84;100430.09;4423551;32;20404;-68
2021/09/11 05:49:01;;;;;;;6.22;2.78;;;;;;;26.91;43.51;100429.94;4420965;32;20102;-68
2021/09/11 05:51:26;;;;;;;4.45;2.85;;;;;;;26.80;43.79;100435.22;4424301;32;20069;-68
2021/09/11 05:53:52;;;;;;;5.32;2.60;;;;;;;26.82;43.64;100441.22;4416625;32;20387;-68
2021/09/11 05:56:18;;;;;;;5.75;3.00;;;;;;;26.80;43.72;100438.09;4421140;32;20061;-68
2021/09/11 05:58:43;;;;;;;4.72;2.87;;;;;;;26.80;43.68;100443.87;4418846;32;20090;-68
2021/09/11 06:01:09;;;;;;;10.05;3.17;;;;;;;26.87;43.42;100454.72;4419413;32;20083;-68
2021/09/11 06:03:35;;;;;;;7.07;3.35;;;;;;;26.75;43.82;100453.44;4420400;32;20532;-67
2021/09/11 06:06:01;;;;;;;4.43;3.00;;;;;;;26.83;43.82;100451.41;4417970;32;20640;-67
2021/09/11 06:08:27;;;;;;;4.85;3.00;;;;;;;26.90;43.64;100445.75;4419924;32;20161;-67
2021/09/11 06:10:53;;;;;;;3.58;2.75;;;;;;;26.84;43.65;100452.97;4420077;32;20057;-67
2021/09/11 06:13:19;;;;;;;6.50;3.33;;;;;;;26.84;43.57;100461.63;4419199;32;20571;-67
2021/09/11 06:15:44;;;;;;;6.05;2.90;;;;;;;27.03;43.18;100456.50;4420411;32;20053;-67
2021/09/11 06:18:10;;;;;;;3.00;2.20;;;;;;;27.06;42.86;100461.16;4421319;32;20053;-67
2021/09/11 06:20:36;;;;;;;3.60;2.30;;;;;;;27.04;42.58;100458.03;4420869;32;20533;-67
2021/09/11 06:23:02;;;;;;;7.32;2.30;;;;;;;27.10;42.40;100453.69;4418889;32;20113;-67
2021/09/11 06:25:28;;;;;;;8.13;2.97;;;;;;;27.25;42.37;100458.09;4419032;32;21184;-67
2021/09/11 06:27:54;;;;;;;5.82;2.53;;;;;;;27.15;42.61;100460.66;4418057;32;20725;-67
2021/09/11 06:30:22;;;;;;;4.53;2.40;;;;;;;27.21;42.05;100458.41;4418640;32;20461;-67
2021/09/11 06:32:48;;;;;;;5.25;2.70;;;;;;;27.31;42.02;100462.41;4416995;32;21678;-67
2021/09/11 06:35:13;;;;;;;2.12;1.92;;;;;;;27.33;41.89;100459.72;4422455;32;20069;-67
2021/09/11 06:37:39;;;;;;;3.60;2.50;;;;;;;27.36;41.81;100470.16;4423045;32;20052;-67
2021/09/11 06:40:05;;;;;;;3.55;2.50;;;;;;;27.30;41.63;100463.72;4419776;32;20038;-67
2021/09/11 06:42:31;;;;;;;4.25;2.20;;;;;;;27.51;nan;100475.31;4418800;32;20149;-67
2021/09/11 06:44:57;;;;;;;4.70;2.33;;;;;;;27.45;41.11;100458.13;4419560;32;20501;-67
2021/09/11 06:47:23;;;;;;;4.32;2.25;;;;;;;27.35;41.42;100476.50;4419632;32;20066;-67
2021/09/11 06:49:48;;;;;;;3.53;2.22;;;;;;;27.45;41.12;100480.47;4419597;32;20113;-67
2021/09/11 06:52:14;;;;;;;3.22;2.35;;;;;;;27.34;41.34;100478.63;4419967;32;20546;-67
2021/09/11 06:54:39;;;;;;;4.78;2.45;;;;;;;27.31;41.44;100481.84;4420787;32;20068;-67
2021/09/11 06:57:05;;;;;;;6.37;2.90;;;;;;;27.63;41.12;100482.38;4417437;32;20066;-67
2021/09/11 06:59:31;;;;;;;4.28;2.55;;;;;;;27.82;40.87;100483.72;4418676;32;20056;-67
2021/09/11 07:01:56;;;;;;;5.18;2.87;;;;;;;27.51;41.41;100486.88;4418231;32;20052;-67
2021/09/11 07:04:22;;;;;;;3.12;2.40;;;;;;;27.62;41.21;100490.28;4419995;32;20167;-67
2021/09/11 07:06:48;;;;;;;4.15;2.65;;;;;;;27.93;40.53;100500.03;4420708;32;20065;-67
2021/09/11 07:09:14;;;;;;;5.28;2.25;;;;;;;27.76;40.85;100491.75;4417052;32;20127;-67
2021/09/11 07:11:40;;;;;;;3.17;2.28;;;;;;;27.76;40.56;100491.00;4418159;32;20045;-67
2021/09/11 07:14:06;;;;;;;5.90;2.80;;;;;;;27.29;41.22;100498.97;4418982;32;20099;-67
2021/09/11 07:16:31;;;;;;;2.95;2.42;;;;;;;27.46;40.84;100499.38;4424705;32;20155;-67
2021/09/11 07:18:57;;;;;;;3.37;2.17;;;;;;;27.44;40.83;100502.03;4415437;32;20104;-67
2021/09/11 07:21:23;;;;;;;2.50;2.00;;;;;;;27.75;40.58;100507.56;4420064;32;20070;-66
2021/09/11 07:23:48;;;;;;;2.30;2.10;;;;;;;27.26;40.98;100511.66;4416046;32;20469;-66
2021/09/11 07:26:22;;;;;;;5.18;2.60;;;;;;;27.34;40.83;100500.97;4418220;32;20034;-68
2021/09/11 07:28:49;;;;;;;4.25;2.47;;;;;;;27.26;41.07;100520.31;4418499;32;20168;-68
2021/09/11 07:31:16;;;;;;;4.10;2.12;;;;;;;27.09;41.43;100517.81;4417210;32;20046;-67
2021/09/11 07:33:42;;;;;;;8.27;2.20;;;;;;;27.29;41.22;100519.97;4415080;32;20113;-67
2021/09/11 07:36:08;;;;;;;3.65;2.35;;;;;;;27.07;41.45;100517.56;4418852;32;20058;-67
2021/09/11 07:38:35;;;;;;;6.05;2.47;;;;;;;27.22;41.38;100517.75;4418743;32;20030;-66
2021/09/11 07:41:02;;;;;;;4.65;1.85;;;;;;;27.61;40.46;100511.09;4419186;32;20144;-68
2021/09/11 07:43:28;;;;;;;3.78;2.47;;;;;;;27.13;41.23;100518.97;4416287;32;20065;-67
2021/09/11 07:45:53;;;;;;;3.65;1.90;;;;;;;27.42;40.53;100522.06;4419428;32;20064;-67
2021/09/11 07:48:19;;;;;;;7.53;2.45;;;;;;;27.14;40.74;100522.66;4419857;32;20105;-67
2021/09/11 07:50:45;;;;;;;7.28;2.08;;;;;;;27.53;40.21;100524.69;4418775;32;20070;-66
2021/09/11 07:53:11;;;;;;;3.83;2.92;;;;;;;27.39;40.46;100529.72;4421950;32;20030;-66
2021/09/11 07:55:37;;;;;;;2.47;2.03;;;;;;;27.60;40.33;100526.88;4417941;32;20377;-67
2021/09/11 07:58:02;;;;;;;5.93;2.62;;;;;;;27.75;40.19;100521.25;4424224;32;20010;-67
2021/09/11 08:00:29;;;;;;;8.40;2.60;;;;;;;28.21;39.43;100524.00;4420453;32;20514;-67
2021/09/11 08:02:57;;;;;;;3.03;1.85;;;;;;;28.59;38.74;100530.09;4419020;32;20455;-67
2021/09/11 08:05:23;;;;;;;2.90;2.17;;;;;;;28.13;39.24;100536.88;4417826;32;20018;-68
2021/09/11 08:07:49;;;;;;;3.72;2.12;;;;;;;28.21;39.00;100546.38;4422175;32;20525;-68
2021/09/11 08:10:15;;;;;;;5.62;2.12;;;;;;;28.48;38.75;100553.56;4419810;32;20500;-67
2021/09/11 08:12:41;;;;;;;3.62;2.47;;;;;;;28.39;38.75;100549.03;4418224;32;20052;-67
2021/09/11 08:15:08;;;;;;;3.10;2.37;;;;;;;28.04;39.25;100552.59;4420463;32;20154;-68
2021/09/11 08:17:34;;;;;;;6.00;2.33;;;;;;;27.85;39.81;100557.03;4419484;32;20121;-67
2021/09/11 08:20:04;;;;;;;2.37;2.00;;;;;;;27.71;40.12;100558.41;4418207;32;20100;-67
2021/09/11 08:22:30;;;;;;;4.55;2.17;;;;;;;27.94;39.83;100562.31;4418832;32;20638;-67
2021/09/11 08:24:56;;;;;;;7.35;2.50;;;;;;;27.94;39.68;100574.69;4419769;32;20094;-67
2021/09/11 08:27:24;;;;;;;3.55;2.50;;;;;;;28.04;39.53;100572.84;4418832;32;20023;-67
2021/09/11 08:29:50;;;;;;;6.95;2.62;;;;;;;27.75;39.92;100587.75;4419907;32;20454;-67
2021/09/11 08:32:16;;;;;;;4.60;2.47;;;;;;;27.95;39.97;100587.78;4419195;32;20423;-67
2021/09/11 08:34:42;;;;;;;6.22;2.60;;;;;;;28.16;39.71;100588.59;4417487;32;20085;-67
2021/09/11 08:37:08;;;;;;;3.35;2.70;;;;;;;27.92;40.14;100594.72;4417261;32;20049;-67
2021/09/11 08:39:33;;;;;;;9.77;3.70;;;;;;;28.07;39.79;100603.53;4423752;32;20548;-67
2021/09/11 08:42:01;;;;;;;7.57;3.78;;;;;;;28.18;40.00;100603.28;4418086;32;20558;-67
2021/09/11 08:44:27;;;;;;;7.72;4.05;;;;;;;28.36;39.42;100607.28;4416546;32;20056;-67
2021/09/11 08:46:54;;;;;;;8.55;3.83;;;;;;;28.48;39.36;100609.38;4419897;32;20065;-67
2021/09/11 08:49:20;;;;;;;4.37;3.90;;;;;;;28.61;39.19;100611.38;4423711;32;20370;-66
2021/09/11 08:51:46;;;;;;;8.43;4.43;;;;;;;28.08;40.04;100622.47;4421691;32;20254;-67
2021/09/11 08:54:14;;;;;;;3.67;3.20;;;;;;;28.43;39.37;100621.81;4423750;32;20026;-67
2021/09/11 08:56:44;;;;;;;6.10;2.72;;;;;;;28.55;39.13;100626.00;4424327;32;20089;-67
2021/09/11 08:59:12;;;;;;;7.68;3.10;;;;;;;28.88;38.42;100622.22;4420938;32;20034;-67
2021/09/11 09:01:38;;;;;;;4.70;3.10;;;;;;;28.89;38.26;100623.75;4419784;32;20021;-67
2021/09/11 09:04:05;;;;;;;14.13;3.37;;;;;;;28.83;38.17;100628.13;4420730;32;20022;-67
2021/09/11 09:06:33;;;;;;;7.03;2.83;;;;;;;29.25;37.62;100632.50;4421589;32;20388;-68
2021/09/11 09:11:45;;;;;;;6.35;2.60;;;;;;;29.22;37.38;100638.66;3981685;31;15639800;-68
2021/09/11 09:16:52;;;;;;;6.75;3.00;;;;;;;29.20;37.80;100645.00;3955293;32;15725561;-67
2021/09/11 09:19:20;;;;;;;7.30;2.45;;;;;;;29.20;37.80;100645.00;4428635;32;20466;-67
2021/09/11 09:21:49;;;;;;;4.22;2.65;;;;;;;28.58;38.77;100642.25;4429162;32;20169;-67
2021/09/11 09:24:28;;;;;;;8.57;4.07;;;;;;;28.88;38.20;100644.59;4434570;32;20036;-67
2021/09/11 09:26:56;;;;;;;4.95;3.67;;;;;;;29.19;37.62;100637.69;4430050;32;20029;-67
2021/09/11 09:29:22;;;;;;;8.30;4.05;;;;;;;29.17;37.51;100642.50;4430054;32;20396;-67
2021/09/11 09:31:54;;;;;;;8.88;4.15;;;;;;;29.34;37.27;100651.47;4429893;32;20064;-67
2021/09/11 09:34:42;;;;;;;5.43;2.70;;;;;;;29.31;37.41;100655.50;4429292;32;20077;-67
2021/09/11 09:37:10;;;;;;;5.90;3.03;;;;;;;29.19;37.08;100643.47;4431811;32;20100;-67
2021/09/11 09:39:46;;;;;;;3.92;2.53;;;;;;;29.47;36.96;100648.44;4418444;32;20076;-66
2021/09/11 09:42:13;;;;;;;3.00;2.03;;;;;;;29.45;36.33;100639.56;4418605;32;20105;-67
2021/09/11 09:47:19;;;;;;;3.15;1.98;;;;;;;29.80;35.97;100633.72;3983692;32;15026329;-68
2021/09/11 09:52:41;;;;;;;3.45;2.05;;;;;;;29.79;35.51;100635.06;3981758;32;15033715;-66
2021/09/11 09:55:09;;;;;;;4.18;2.00;;;;;;;29.79;35.51;100635.06;4435090;32;20083;-67
2021/09/11 09:57:37;;;;;;;2.90;2.00;;;;;;;29.78;35.32;100636.41;4435925;32;20067;-67
2021/09/11 10:00:04;;;;;;;2.47;1.90;;;;;;;29.35;35.98;100642.19;4439010;32;20072;-66
2021/09/11 10:02:31;;;;;;;9.13;3.00;;;;;;;29.29;36.12;100644.50;4435621;32;20164;-67
2021/09/11 10:04:57;;;;;;;7.28;2.30;;;;;;;29.66;35.83;100640.25;4432143;32;20025;-67
2021/09/11 10:07:24;;;;;;;3.22;2.00;;;;;;;29.94;35.15;100645.97;4437039;32;20063;-67
2021/09/11 10:09:51;;;;;;;3.28;2.20;;;;;;;29.60;35.64;100648.31;4435300;32;20059;-67
2021/09/11 10:12:41;;;;;;;5.10;2.10;;;;;;;29.95;35.06;100641.69;4434539;32;20084;-67
2021/09/11 10:15:29;;;;;;;6.32;2.30;;;;;;;30.10;34.72;100641.72;4436627;32;20017;-67
2021/09/11 10:17:56;;;;;;;2.40;1.70;;;;;;;30.12;34.94;100639.00;4435261;32;20512;-66
2021/09/11 10:20:23;;;;;;;3.45;1.87;;;;;;;29.76;35.22;100635.44;4436308;32;20099;-67
2021/09/11 10:23:12;;;;;;;5.78;2.37;;;;;;;29.83;35.18;100635.47;4432820;32;20096;-67
2021/09/11 10:25:41;;;;;;;2.62;2.30;;;;;;;30.08;34.74;100633.59;4434587;32;20422;-67
2021/09/11 10:28:13;;;;;;;5.05;2.20;;;;;;;30.08;35.06;100633.59;4432242;32;20485;-67
2021/09/11 10:36:46;;;;;;;7.57;2.67;;;;;;;29.83;35.26;100643.41;3982529;32;15025992;-67
2021/09/11 10:39:12;;;;;;;3.55;2.03;;;;;;;29.83;35.26;100643.41;4436313;32;20060;-73
2021/09/11 10:41:38;;;;;;;4.62;2.37;;;;;;;29.00;36.45;100642.94;4435650;32;20414;-67
2021/09/11 10:44:08;;;;;;;3.78;2.30;;;;;;;28.92;36.53;100645.78;4434676;32;20050;-67
2021/09/11 10:46:53;;;;;;;5.07;2.28;;;;;;;29.13;36.41;100647.88;4435434;32;20129;-67
2021/09/11 10:49:29;;;;;;;6.28;2.47;;;;;;;29.68;35.48;100640.44;4435697;32;20738;-67
2021/09/11 10:52:08;;;;;;;3.55;1.60;;;;;;;29.70;35.34;100644.31;4433651;32;20477;-67
2021/09/11 10:54:39;;;;;;;3.25;1.80;;;;;;;30.05;34.74;100639.78;4434019;32;20482;-67
2021/09/11 10:59:42;;;;;;;4.10;2.33;;;;;;;30.40;34.46;100638.91;3953401;32;15725496;-68
2021/09/11 11:05:07;;;;;;;3.87;1.95;;;;;;;30.84;33.75;100629.41;3982241;31;15710344;-66
2021/09/11 11:07:39;;;;;;;6.87;1.65;;;;;;;30.84;33.75;100629.41;4466449;32;20369;-67
2021/09/11 11:10:07;;;;;;;3.55;1.50;;;;;;;30.33;34.41;100639.66;4459620;32;20381;-67
2021/09/11 11:12:36;;;;;;;3.58;1.83;;;;;;;30.11;34.62;100634.56;4460358;32;20092;-68
2021/09/11 11:15:05;;;;;;;4.00;1.50;;;;;;;30.26;34.52;100635.41;4458972;32;20453;-68
2021/09/11 11:17:36;;;;;;;2.62;2.00;;;;;;;30.68;33.87;100633.66;4461210;32;20089;-68
2021/09/11 11:20:04;;;;;;;5.80;1.35;;;;;;;30.64;33.80;100639.09;4465822;32;20398;-67
2021/09/11 11:22:34;;;;;;;2.42;1.80;;;;;;;30.26;34.25;100644.13;4460576;32;20076;-67
2021/09/11 11:25:01;;;;;;;3.87;1.92;;;;;;;30.18;34.42;100637.50;4460920;32;20678;-67
2021/09/11 11:27:28;;;;;;;2.97;1.52;;;;;;;29.96;34.59;100638.22;4459082;32;20041;-67
2021/09/11 11:29:55;;;;;;;2.33;1.42;;;;;;;29.36;35.73;100640.84;4460511;32;20097;-67
2021/09/11 11:32:24;;;;;;;4.15;1.85;;;;;;;29.99;34.91;100639.19;4460776;32;20040;-67
2021/09/11 11:34:54;;;;;;;3.40;1.35;;;;;;;30.48;34.01;100640.44;4461938;32;20119;-67
2021/09/11 11:37:21;;;;;;;3.42;1.30;;;;;;;30.20;34.00;100634.03;4461333;32;20517;-67
2021/09/11 11:39:47;;;;;;;4.47;2.30;;;;;;;30.20;33.78;100629.00;4456215;32;20033;-67